Pagrindinis puslapis
METAR-TAF:

METAR-TAF

Oro uostai :

Klužas-Napoka, Rumunija

platuma: 46-47N, ilguma: 023-34E, Aukštis: 315 m

Dabartinis oras

Ataskaita buvo paskelbta 21 minutes, ne 21:30 UTC
Vėjas 1 kt nuo kintamojo kryptimis
Temperatūra 3°C
Drėgmė 100%
Slėgis 1015 hPa
Matomumas: 2000 m
Išsisklaidę debesys ne aukštis 4400 ft
Su prošvaistėmis ne aukštis 6000 ft
lietus, rūkana

METAR: LRCL 272130Z VRB01KT 2000 -RA BR SCT044 BKN060 03/03 Q1015 R07/29//95

Laikas: 23:51 (21:51 UTC)

Prognozė

Ataskaita buvo paskelbta 1 valandą ir 51 minutes, ne 20:00 UTC
Prognozė galioja nuo 27 metu 21 UTC su 28 metu 06 UTC
Vėjas 4 kt nuo kintamojo kryptimis
Matomumas: 3000 m
Su prošvaistėmis ne aukštis 4000 ft
rūkana
Tapsmas
nuo 27 metu 23 UTC su 28 metu 01 UTC
Matomumas: 1500 m
Su prošvaistėmis ne aukštis 2500 ft
rūkana
Tikimybė 40% :
Laikinai
nuo 28 metu 02 UTC su 28 metu 06 UTC
Matomumas: 0600 m
ne aukštis 200 ft
rūkas

TAF: LRCL 272000Z 2721/2806 VRB04KT 3000 BR BKN040 BECMG 2723/2801 1500 BR BKN025 PROB40 TEMPO 2802/2806 0600 FG VV002

Orai ataskaitas ir orų prognozės (METAR, TAF).

turimą stotys yra geltonos ir raudonos taškus žemėlapyje.

Perkelti pele per norėdami pamatyti stoties vardą.

Tada spustelėkite, norėdami matyti oro stebėjimo ir prognozės.

Norėdami pakeisti žemėlapį: spustelėkite ant žalios mygtukų su juodo kryžiaus žemyn,; žalią mygtuką su brūkšneliu, jei norite nutolinti; arba žalių rodyklių gretimoms žemėlapius.


METAR-TAF: